Latest Weather Observations for Mareeba

IDQ60801

Issued at 4:05 pm EST Monday 28 July 2014 (issued every 30 minutes, with the page automatically refreshed every 10 minutes)

About weather observations | Map of weather stations | Latest weather observations for QLD | Other Formats
Station Details ID: 031210 Name: MAREEBA AIRPORT Lat: -17.07 Lon: 145.43 Height: 471.93 m
Data from the previous 72 hours. | See also: Recent months at Mareeba
Date/Time
EST
Temp
°C
App
Temp
°C
Dew
Point
Rel
Hum
%
Delta-T
°C
Wind Press
QNH
hPa
Press
MSL
hPa
Rain
since 9 am
mm
Dir
 
Spd
km/h
Gust
km/h
Spd
kts
Gust
kts
28/04:00pm 20.8 19.6 15.1 70 3.4 ENE 15 24 8 13 1019.2 - 0.0
28/03:30pm 21.4 20.2 16.1 72 3.2 NE 17 24 9 13 1019.2 - 0.0
28/03:00pm 21.9 20.9 15.5 67 3.9 E 15 22 8 12 1019.2 1017.6 0.0
28/02:30pm 21.1 20.8 16.5 75 2.8 E 13 19 7 10 1019.3 - 0.0
28/02:00pm 20.3 21.2 16.5 79 2.3 NNE 7 9 4 5 1019.7 - 0.0
28/01:30pm 21.0 19.9 15.3 70 3.5 SE 15 24 8 13 1020.1 - 0.0
28/01:00pm 21.3 21.3 15.2 68 3.7 E 9 17 5 9 1020.6 - 0.0
28/12:30pm 21.6 20.0 15.0 66 4.0 ESE 17 24 9 13 1020.8 - 0.0
28/12:00pm 22.0 19.9 15.1 65 4.2 ESE 20 28 11 15 1020.9 1019.3 0.0
28/11:30am 21.9 19.5 14.3 62 4.5 ESE 20 28 11 15 1021.3 - 0.0
28/11:00am 21.5 18.5 13.7 61 4.6 SE 22 32 12 17 1021.6 - 0.0
28/10:30am 22.1 19.8 14.2 61 4.7 ESE 19 24 10 13 1021.7 - 0.0
28/10:00am 21.0 17.6 13.7 63 4.3 ESE 24 33 13 18 1022.1 - 0.0
28/09:30am 21.3 19.4 14.2 64 4.2 ESE 17 26 9 14 1021.9 - 0.0
28/09:00am 20.2 17.4 14.3 69 3.5 SE 22 32 12 17 1021.7 1020.2 4.2
28/08:30am 19.5 17.9 15.0 75 2.7 SE 17 24 9 13 1021.5 - 4.2
28/08:00am 18.7 16.4 14.0 74 2.8 SE 19 26 10 14 1021.2 - 4.2
28/07:30am 18.0 15.6 13.9 77 2.4 SE 19 24 10 13 1021.1 - 4.2
28/07:00am 17.4 15.8 13.9 80 2.0 SE 15 20 8 11 1020.7 - 4.2
28/06:30am 17.6 15.6 13.9 79 2.2 SE 17 24 9 13 1020.2 - 4.2
28/06:00am 17.5 16.4 14.4 82 1.8 SE 13 19 7 10 1020.0 1018.4 4.2
28/05:30am 15.8 15.7 13.8 88 1.2 SSE 7 11 4 6 1019.7 - 4.2
28/05:00am 16.1 14.8 13.6 85 1.4 SSE 13 17 7 9 1019.6 - 4.2
28/04:30am 17.1 15.2 14.2 83 1.7 SE 17 20 9 11 1019.6 - 4.2
28/04:00am 15.7 14.3 13.5 87 1.3 SSE 13 17 7 9 1019.6 - 4.2
28/03:30am 15.8 14.9 13.6 87 1.3 SSE 11 15 6 8 1019.6 - 4.2
28/03:00am 16.7 15.8 13.8 83 1.7 SE 11 13 6 7 1019.9 1018.3 4.2
28/02:30am 16.8 16.0 14.1 84 1.6 SE 11 22 6 12 1020.1 - 4.2
28/02:00am 17.5 16.4 14.2 81 1.9 SE 13 20 7 11 1020.4 - 4.2
28/01:30am 17.7 15.4 14.0 79 2.2 SE 19 24 10 13 1020.6 - 4.2
28/01:00am 17.6 16.7 14.9 84 1.6 ESE 13 15 7 8 1021.0 - 4.2
28/12:30am 17.9 16.8 15.3 85 1.6 ESE 15 20 8 11 1021.2 - 4.2
28/12:00am 17.5 15.1 15.3 87 1.3 SE 22 30 12 16 1021.7 1020.2 4.0
 
Date/Time
EST
Temp
°C
App
Temp
°C
Dew
Point
Rel
Hum
%
Delta-T
°C
Wind Press
QNH
hPa
Press
MSL
hPa
Rain
since 9 am
mm
Dir
 
Spd
km/h
Gust
km/h
Spd
kts
Gust
kts
27/11:30pm 17.3 15.5 15.6 90 1.0 ESE 19 26 10 14 1021.9 - 3.8
27/11:00pm 17.7 18.8 16.7 94 0.6 S 6 7 3 4 1022.2 - 2.2
27/10:30pm 17.8 20.1 16.7 93 0.7 CALM 0 0 0 0 1022.3 - 2.2
27/10:00pm 17.7 19.9 16.4 92 0.8 CALM 0 0 0 0 1022.5 - 2.2
27/09:30pm 17.6 19.0 16.5 93 0.7 SE 4 9 2 5 1022.6 - 2.2
27/09:00pm 17.6 18.4 16.3 92 0.8 E 7 11 4 6 1022.4 1020.8 1.8
27/08:30pm 17.9 16.3 16.1 89 1.1 SSE 19 22 10 12 1022.2 - 1.4
27/08:00pm 18.7 20.8 16.3 86 1.5 CALM 0 6 0 3 1021.9 - 1.2
27/07:30pm 19.2 19.5 16.1 82 1.9 SE 9 13 5 7 1021.4 - 1.2
27/07:00pm 19.2 20.5 16.1 82 1.9 NNE 4 13 2 7 1021.2 - 1.2
27/06:30pm 19.3 21.0 16.3 83 1.8 ESE 2 9 1 5 1020.8 - 1.2
27/06:00pm 19.7 20.1 16.2 80 2.1 SE 9 13 5 7 1020.4 1018.8 1.2
27/05:30pm 19.7 18.5 16.0 79 2.3 SE 17 24 9 13 1020.2 - 1.2
27/05:00pm 20.7 21.8 16.5 77 2.6 E 6 20 3 11 1020.0 - 1.2
27/04:30pm 20.6 21.5 16.6 78 2.5 NNE 7 13 4 7 1019.7 - 1.2
27/04:00pm 21.1 21.9 17.3 79 2.4 ESE 9 13 5 7 1019.5 - 1.2
27/03:30pm 20.8 20.2 16.6 77 2.6 SSE 15 22 8 12 1019.4 - 1.2
27/03:00pm 22.0 23.1 17.2 74 3.0 SE 7 19 4 10 1019.3 1017.7 1.2
27/02:30pm 21.3 22.2 16.7 75 2.9 NNE 7 13 4 7 1019.5 - 1.2
27/02:00pm 20.9 20.7 17.5 81 2.1 SSE 15 20 8 11 1019.9 - 1.2
27/01:30pm 21.3 22.7 17.9 81 2.1 ENE 7 13 4 7 1020.0 - 1.2
27/01:00pm 20.7 22.2 18.8 89 1.2 E 9 15 5 8 1020.5 - 1.2
27/12:30pm 21.9 22.7 17.3 75 2.9 SSE 9 15 5 8 1020.8 - 0.2
27/12:00pm 21.0 21.8 18.2 84 1.8 SE 11 19 6 10 1021.2 1019.6 0.2
27/11:30am 20.5 20.5 17.1 81 2.1 ESE 13 17 7 9 1021.4 - 0.0
27/11:00am 20.3 21.2 17.5 84 1.8 E 9 13 5 7 1021.7 - 0.0
27/10:30am 19.8 20.6 17.2 85 1.6 ENE 9 15 5 8 1021.9 - 0.0
27/10:00am 20.0 21.9 16.6 81 2.1 ESE 2 6 1 3 1021.9 - 0.0
27/09:30am 19.7 20.8 16.5 82 2.0 E 6 9 3 5 1022.1 - 0.0
27/09:00am 18.9 20.7 16.5 86 1.5 N 2 6 1 3 1021.9 1020.4 0.0
27/08:30am 18.3 20.5 16.5 89 1.1 CALM 0 0 0 0 1021.7 - 0.0
27/08:00am 17.5 19.4 15.8 90 1.0 CALM 0 0 0 0 1021.4 - 0.0
27/07:30am 17.1 18.6 15.6 91 0.9 N 2 7 1 4 1021.2 - 0.0
27/07:00am 16.8 17.7 15.2 90 0.9 NNW 4 9 2 5 1020.9 - 0.0
27/06:30am 16.7 17.1 14.7 88 1.2 WNW 6 9 3 5 1020.5 - 0.0
27/06:00am 16.5 18.1 14.9 90 0.9 CALM 0 0 0 0 1020.3 1018.7 0.0
27/05:30am 16.1 16.6 14.1 88 1.2 NNW 4 7 2 4 1020.2 - 0.0
27/05:00am 16.4 17.7 14.1 86 1.3 CALM 0 0 0 0 1020.1 - 0.0
27/04:30am 17.7 18.0 15.0 84 1.6 ESE 7 11 4 6 1020.0 - 0.0
27/04:00am 16.7 18.0 14.0 84 1.6 CALM 0 0 0 0 1020.1 - 0.0
27/03:30am 17.0 17.2 14.3 84 1.6 SE 6 11 3 6 1020.2 - 0.0
27/03:00am 16.9 17.1 14.7 87 1.3 SSE 7 11 4 6 1020.4 1018.8 0.0
27/02:30am 15.7 16.3 13.2 85 1.4 NNW 2 6 1 3 1020.7 - 0.0
27/02:00am 17.3 15.4 14.2 82 1.8 SE 17 20 9 11 1020.8 - 0.0
27/01:30am 17.2 15.7 14.1 82 1.8 SE 15 19 8 10 1021.2 - 0.0
27/01:00am 17.8 16.3 14.1 79 2.2 SE 15 22 8 12 1021.7 - 0.0
27/12:30am 17.9 15.8 14.6 81 1.9 SE 19 28 10 15 1022.2 - 0.0
27/12:00am 16.7 15.8 13.6 82 1.8 SE 11 15 6 8 1022.4 1020.8 0.0
 
Date/Time
EST
Temp
°C
App
Temp
°C
Dew
Point
Rel
Hum
%
Delta-T
°C
Wind Press
QNH
hPa
Press
MSL
hPa
Rain
since 9 am
mm
Dir
 
Spd
km/h
Gust
km/h
Spd
kts
Gust
kts
26/11:30pm 17.8 16.6 14.1 79 2.2 SE 13 19 7 10 1022.7 - 0.0
26/11:00pm 18.5 16.6 14.2 76 2.5 SE 17 22 9 12 1023.0 - 0.0
26/10:30pm 18.2 17.0 14.1 77 2.4 SE 13 19 7 10 1023.0 - 0.0
26/10:00pm 18.1 17.4 14.4 79 2.2 SSE 11 15 6 8 1023.0 - 0.0
26/09:30pm 18.5 17.2 14.8 79 2.2 SE 15 20 8 11 1022.9 - 0.0
26/09:00pm 18.2 16.9 14.7 80 2.1 SSE 15 20 8 11 1023.0 1021.4 0.0
26/08:30pm 18.4 17.1 14.7 79 2.2 SSE 15 24 8 13 1022.9 - 0.0
26/08:00pm 18.7 17.0 14.6 77 2.4 SSE 17 24 9 13 1022.6 - 0.0
26/07:30pm 19.3 16.8 14.1 72 3.1 SE 20 30 11 16 1022.4 - 0.0
26/07:00pm 19.4 17.7 13.6 69 3.4 ESE 15 20 8 11 1022.2 - 0.0
26/06:30pm 20.4 18.7 13.6 65 4.0 ESE 15 26 8 14 1021.8 - 0.0
26/06:00pm 21.2 19.8 13.4 61 4.6 E 13 19 7 10 1021.6 1020.1 0.0
26/05:30pm 21.7 19.0 12.8 57 5.2 SE 19 24 10 13 1021.4 - 0.0
26/05:00pm 23.1 20.8 13.0 53 5.9 ESE 17 20 9 11 1021.2 - 0.0
26/04:30pm 23.6 20.0 12.9 51 6.3 SE 24 35 13 19 1021.0 - 0.0
26/04:00pm 23.9 21.0 12.2 48 6.8 ESE 19 26 10 14 1021.0 - 0.0
26/03:30pm 23.5 20.5 12.5 50 6.4 ESE 20 33 11 18 1020.7 - 0.0
26/03:00pm 23.8 21.0 13.1 51 6.3 ESE 20 35 11 19 1020.6 1019.0 0.0
26/02:30pm 23.7 21.0 13.6 53 6.0 ESE 20 30 11 16 1020.7 - 0.0
26/02:12pm 23.2 18.9 13.1 53 5.9 SE 28 44 15 24 1021.0 - 0.0
26/02:00pm 24.0 22.0 15.0 57 5.5 SE 19 26 10 14 1021.1 - 0.0
26/01:30pm 23.4 21.1 15.7 62 4.7 SE 22 33 12 18 1021.5 - 0.0
26/01:00pm 23.0 19.9 14.6 59 5.1 SE 24 33 13 18 1021.8 - 0.0
26/12:30pm 24.0 20.9 13.5 52 6.2 ESE 22 35 12 19 1021.8 - 0.0
26/12:00pm 23.8 19.1 13.1 51 6.3 SE 30 39 16 21 1022.3 1020.7 0.0
26/11:30am 23.9 20.3 13.2 51 6.3 ESE 24 32 13 17 1022.8 - 0.0
26/11:00am 23.4 19.2 13.6 54 5.8 ESE 28 44 15 24 1023.1 - 0.0
26/10:30am 22.1 18.8 14.0 60 4.8 ESE 24 35 13 19 1023.5 - 0.0
26/10:00am 21.4 17.9 14.6 65 4.1 ESE 26 35 14 19 1023.7 - 0.0
26/09:48am 21.6 17.7 14.5 64 4.3 ESE 28 50 15 27 1023.7 - 0.0
26/09:30am 21.2 17.6 14.1 64 4.2 ESE 26 37 14 20 1023.6 - 0.0
26/09:00am 20.4 18.4 15.0 71 3.2 SE 19 24 10 13 1023.5 1022.0 0.0
26/08:30am 18.8 17.4 15.5 81 2.0 ESE 17 24 9 13 1023.5 - 0.0
26/08:00am 18.2 16.6 15.1 82 1.8 ESE 17 28 9 15 1023.3 - 0.0
26/07:30am 17.8 17.4 15.1 84 1.6 SE 11 19 6 10 1022.9 - 0.0
26/07:00am 17.1 17.0 14.9 87 1.3 SE 9 13 5 7 1022.7 - 0.0
26/06:30am 17.1 17.1 15.1 88 1.2 SE 9 13 5 7 1022.7 - 0.0
26/06:00am 17.5 15.9 15.0 85 1.5 SSE 17 22 9 12 1022.4 1020.8 0.0
26/05:30am 17.2 18.8 14.8 86 1.4 CALM 0 0 0 0 1022.2 - 0.0
26/05:00am 17.2 17.5 15.0 87 1.3 SE 7 13 4 7 1022.2 - 0.0
26/04:30am 17.4 17.9 14.9 85 1.5 WSW 6 13 3 7 1022.1 - 0.0
26/04:00am 17.3 18.7 14.4 83 1.7 CALM 0 0 0 0 1022.1 - 0.0
26/03:30am 17.6 18.0 14.7 83 1.7 ENE 6 7 3 4 1021.8 - 0.0
26/03:00am 17.7 18.2 15.1 85 1.5 S 6 7 3 4 1022.1 1020.5 0.0
26/02:30am 17.8 18.3 14.9 83 1.7 SSE 6 9 3 5 1022.2 - 0.0
26/02:00am 18.1 17.6 14.8 81 2.0 S 11 15 6 8 1022.3 - 0.0
26/01:30am 17.8 17.0 15.1 84 1.6 SSE 13 17 7 9 1022.5 - 0.0
26/01:00am 17.5 16.3 15.0 85 1.5 S 15 19 8 10 1022.8 - 0.0
26/12:30am 17.4 17.2 14.7 84 1.6 S 9 13 5 7 1023.0 - 0.0
26/12:00am 18.0 17.9 14.9 82 1.8 SE 9 13 5 7 1023.2 1021.7 0.0
 
Date/Time
EST
Temp
°C
App
Temp
°C
Dew
Point
Rel
Hum
%
Delta-T
°C
Wind Press
QNH
hPa
Press
MSL
hPa
Rain
since 9 am
mm
Dir
 
Spd
km/h
Gust
km/h
Spd
kts
Gust
kts
25/11:30pm 17.9 17.2 14.4 80 2.1 SSE 11 15 6 8 1023.4 - 0.0
25/11:00pm 18.2 17.1 14.3 78 2.3 SSE 13 20 7 11 1023.6 - 0.0
25/10:30pm 18.5 16.0 14.2 76 2.5 SE 20 26 11 14 1023.5 - 0.0
25/10:00pm 18.2 16.4 14.5 79 2.2 SSE 17 26 9 14 1023.6 - 0.0
25/09:30pm 17.8 16.8 14.5 81 1.9 S 13 17 7 9 1023.3 - 0.0
25/09:00pm 17.6 17.3 14.3 81 1.9 S 9 15 5 8 1023.3 1021.8 0.0
25/08:30pm 18.1 17.7 14.2 78 2.3 SSE 9 11 5 6 1023.2 - 0.0
25/08:00pm 18.6 17.8 14.1 75 2.6 SE 11 17 6 9 1022.8 - 0.0
25/07:30pm 18.9 17.3 14.0 73 2.9 SSE 15 20 8 11 1022.3 - 0.0
25/07:00pm 18.9 17.8 14.4 75 2.7 SSE 13 19 7 10 1021.8 - 0.0
25/06:30pm 19.0 17.4 13.8 72 3.0 SSE 15 20 8 11 1021.4 - 0.0
25/06:00pm 19.9 19.4 13.8 68 3.6 SE 9 13 5 7 1021.1 1019.5 0.0
25/05:30pm 20.7 19.9 13.9 65 4.0 E 11 17 6 9 1020.8 - 0.0
25/05:00pm 20.8 20.0 14.0 65 4.0 ENE 11 19 6 10 1020.7 - 0.0
25/04:30pm 21.3 20.5 14.0 63 4.3 E 11 17 6 9 1020.3 - 0.0

Other Formats:

Comma delimited format used in spreadsheet applications
http://www.bom.gov.au/fwo/IDQ60801/IDQ60801.95286.axf

JavaScript Object Notation format (JSON) in row-major order
http://www.bom.gov.au/fwo/IDQ60801/IDQ60801.95286.json